createdAt,value
2019-05-14T00:05:53.288Z,1.47
2019-05-14T00:11:59.160Z,1.53
2019-05-14T00:18:04.965Z,1.23
2019-05-14T00:24:11.504Z,1.50
2019-05-14T00:30:17.909Z,1.80
2019-05-14T00:36:24.616Z,1.77
2019-05-14T00:42:31.864Z,1.40
2019-05-14T00:48:39.263Z,1.67
2019-05-14T00:54:45.055Z,1.90
2019-05-14T01:00:52.551Z,1.70
2019-05-14T01:06:58.890Z,1.77
2019-05-14T01:13:04.999Z,1.87
2019-05-14T01:19:12.409Z,1.43
2019-05-14T01:25:18.429Z,1.80
2019-05-14T01:31:24.233Z,1.60
2019-05-14T01:37:31.143Z,1.80
2019-05-14T01:43:37.634Z,1.80
2019-05-14T01:49:43.430Z,1.90
2019-05-14T01:55:49.161Z,1.70
2019-05-14T02:01:54.910Z,1.73
2019-05-14T02:08:01.882Z,1.87
2019-05-14T02:14:07.918Z,1.80
2019-05-14T02:20:13.651Z,1.83
2019-05-14T02:26:21.909Z,2.40
2019-05-14T02:32:29.738Z,2.30
2019-05-14T02:38:34.789Z,2.13
2019-05-14T02:44:41.151Z,2.40
2019-05-14T02:50:49.381Z,2.40
2019-05-14T02:56:54.803Z,2.43
2019-05-14T03:03:00.817Z,2.77
2019-05-14T03:09:09.607Z,2.70
2019-05-14T03:15:16.088Z,2.97
2019-05-14T03:21:22.022Z,3.20
2019-05-14T03:27:30.443Z,3.50
2019-05-14T03:33:35.311Z,3.83
2019-05-14T03:39:41.154Z,4.00
2019-05-14T03:45:49.552Z,4.00
2019-05-14T03:51:54.663Z,3.90
2019-05-14T03:58:00.963Z,3.67
2019-05-14T04:04:09.967Z,4.43
2019-05-14T04:10:14.510Z,4.37
2019-05-14T04:16:24.237Z,4.83
2019-05-14T04:22:33.829Z,4.60
2019-05-14T04:28:41.871Z,4.57
2019-05-14T04:34:49.861Z,4.60
2019-05-14T04:40:55.453Z,5.20
2019-05-14T04:47:21.620Z,4.57
2019-05-14T04:53:10.331Z,4.83
2019-05-14T04:59:19.099Z,4.80
2019-05-14T05:05:23.668Z,4.90
2019-05-14T05:11:29.676Z,5.17
2019-05-14T05:17:44.249Z,4.87
2019-05-14T05:23:43.186Z,4.77
2019-05-14T05:29:49.160Z,4.87
2019-05-14T05:35:55.121Z,4.63
2019-05-14T05:42:01.422Z,4.80
2019-05-14T05:48:08.409Z,4.87
2019-05-14T05:54:14.591Z,4.60
2019-05-14T06:00:39.832Z,5.77
2019-05-14T06:06:44.992Z,5.20
2019-05-14T06:12:52.685Z,5.33
2019-05-14T06:18:58.961Z,4.73
2019-05-14T06:25:10.533Z,4.90
2019-05-14T06:31:13.259Z,4.67
2019-05-14T06:37:19.374Z,4.27
2019-05-14T06:43:28.852Z,4.27
2019-05-14T06:49:38.339Z,4.27
2019-05-14T06:55:43.551Z,4.57
2019-05-14T07:01:49.487Z,4.93
2019-05-14T07:07:55.903Z,5.03
2019-05-14T07:14:02.688Z,5.10
2019-05-14T07:20:11.315Z,5.33
2019-05-14T07:26:19.330Z,5.47
2019-05-14T07:32:24.622Z,5.27
2019-05-14T07:38:30.716Z,5.03
2019-05-14T07:44:39.087Z,5.67
2019-05-14T07:50:51.235Z,5.43
2019-05-14T07:56:53.504Z,6.00
2019-05-14T08:02:59.290Z,5.63
2019-05-14T08:09:08.632Z,5.20
2019-05-14T08:15:19.994Z,5.73
2019-05-14T08:21:23.320Z,5.10
2019-05-14T08:27:31.035Z,5.90
2019-05-14T08:33:39.445Z,5.27
2019-05-14T08:39:44.900Z,5.33
2019-05-14T08:45:50.693Z,5.50
2019-05-14T08:51:59.363Z,5.37
2019-05-14T08:58:04.501Z,5.00
2019-05-14T09:04:10.351Z,4.83
2019-05-14T09:10:19.067Z,5.47
2019-05-14T09:16:38.477Z,4.70
2019-05-14T09:22:31.271Z,4.77
2019-05-14T09:28:39.229Z,4.60
2019-05-14T09:34:48.437Z,4.10
2019-05-14T09:41:06.910Z,3.17
2019-05-14T09:47:00.782Z,3.40
2019-05-14T09:53:09.765Z,3.30
2019-05-14T09:59:14.500Z,3.77
2019-05-14T10:05:20.283Z,3.20
2019-05-14T10:11:28.631Z,2.60
2019-05-14T10:17:33.724Z,3.90
2019-05-14T10:23:39.449Z,3.70
2019-05-14T10:29:45.389Z,4.03
2019-05-14T10:35:51.304Z,4.00
2019-05-14T10:41:57.354Z,3.40
2019-05-14T10:48:03.327Z,3.43
2019-05-14T10:54:20.958Z,3.33
2019-05-14T11:00:18.636Z,3.77
2019-05-14T11:06:24.654Z,3.53
2019-05-14T11:12:30.771Z,3.87
2019-05-14T11:18:39.592Z,3.70
2019-05-14T11:24:44.238Z,4.23
2019-05-14T11:30:50.051Z,4.00
2019-05-14T11:36:55.797Z,4.03
2019-05-14T11:43:01.545Z,3.70
2019-05-14T11:49:08.852Z,6.77
2019-05-14T11:55:15.449Z,3.30
2019-05-14T12:01:21.234Z,2.80
2019-05-14T12:07:28.096Z,3.33
2019-05-14T12:13:34.407Z,3.00
2019-05-14T12:19:43.516Z,2.97
2019-05-14T12:25:49.568Z,3.00
2019-05-14T12:31:55.313Z,3.03
2019-05-14T12:38:01.143Z,3.73
2019-05-14T12:44:09.379Z,3.40
2019-05-14T12:50:14.435Z,3.57
2019-05-14T12:56:20.217Z,3.40
2019-05-14T13:02:25.948Z,2.80
2019-05-14T13:08:31.751Z,2.93
2019-05-14T13:14:39.410Z,3.17
2019-05-14T13:20:45.113Z,2.90
2019-05-14T13:26:50.937Z,2.63
2019-05-14T13:32:59.076Z,3.27
2019-05-14T13:39:08.977Z,2.90
2019-05-14T13:45:14.211Z,3.10
2019-05-14T13:51:20.113Z,3.20
2019-05-14T13:57:28.544Z,2.90
2019-05-14T14:03:33.709Z,2.30
2019-05-14T14:09:39.794Z,2.83
2019-05-14T14:15:45.584Z,3.20
2019-05-14T14:21:51.458Z,2.77
2019-05-14T14:28:00.383Z,2.63
2019-05-14T14:34:04.983Z,2.97
2019-05-14T14:40:11.476Z,2.27
2019-05-14T14:46:19.624Z,2.37
2019-05-14T14:52:25.025Z,2.50
2019-05-14T14:58:30.851Z,2.60
2019-05-14T15:04:39.541Z,2.13
2019-05-14T15:10:44.798Z,1.90
2019-05-14T15:16:51.551Z,2.17
2019-05-14T15:22:59.977Z,2.43
2019-05-14T15:29:05.172Z,1.90
2019-05-14T15:35:11.535Z,2.20
2019-05-14T15:41:20.162Z,2.13
2019-05-14T15:47:25.128Z,2.17
2019-05-14T15:53:31.263Z,2.23
2019-05-14T15:59:39.200Z,1.93
2019-05-14T16:05:44.560Z,1.97
2019-05-14T16:11:50.337Z,1.90
2019-05-14T16:18:08.215Z,1.80
2019-05-14T16:24:03.783Z,1.90
2019-05-14T16:30:10.440Z,1.90
2019-05-14T16:36:18.448Z,1.70
2019-05-14T16:42:25.242Z,1.73
2019-05-14T16:48:31.510Z,2.30
2019-05-14T16:54:39.474Z,1.82
2019-05-14T17:00:45.055Z,2.00
2019-05-14T17:06:50.882Z,2.00
2019-05-14T17:13:00.528Z,1.93
2019-05-14T17:19:04.251Z,1.60
2019-05-14T17:25:10.608Z,1.87
2019-05-14T17:31:18.787Z,1.83
2019-05-14T17:37:24.186Z,1.63
2019-05-14T17:43:30.054Z,1.53
2019-05-14T17:49:35.803Z,1.60
2019-05-14T17:55:47.093Z,1.90
2019-05-14T18:01:49.134Z,1.70
2019-05-14T18:07:54.920Z,1.63
2019-05-14T18:14:00.943Z,1.30
2019-05-14T18:20:08.372Z,1.70
2019-05-14T18:26:14.604Z,1.57
2019-05-14T18:32:20.564Z,1.40
2019-05-14T18:38:28.898Z,1.30
2019-05-14T18:44:33.939Z,1.70
2019-05-14T18:50:40.011Z,1.30
2019-05-14T18:56:48.925Z,1.03
2019-05-14T19:02:54.893Z,1.10
2019-05-14T19:09:00.817Z,1.60
2019-05-14T19:15:08.774Z,1.30
2019-05-14T19:21:14.936Z,1.40
2019-05-14T19:27:20.944Z,1.10
2019-05-14T19:33:28.803Z,1.70
2019-05-14T19:39:34.731Z,1.33
2019-05-14T19:45:40.598Z,1.37
2019-05-14T19:51:48.312Z,1.43
2019-05-14T19:57:53.916Z,1.27
2019-05-14T20:04:00.538Z,1.20
2019-05-14T20:10:08.911Z,1.20
2019-05-14T20:16:14.861Z,1.37
2019-05-14T20:22:21.230Z,1.47
2019-05-14T20:28:27.056Z,1.40
2019-05-14T20:34:32.872Z,1.30
2019-05-14T20:40:38.609Z,1.30
2019-05-14T20:46:44.622Z,1.37
2019-05-14T20:52:50.401Z,1.50
2019-05-14T20:58:56.270Z,1.70
2019-05-14T21:05:04.692Z,1.97
2019-05-14T21:11:09.652Z,2.00
2019-05-14T21:17:15.593Z,2.00
2019-05-14T21:23:21.523Z,2.00
2019-05-14T21:29:30.394Z,1.63
2019-05-14T21:35:38.736Z,2.50
2019-05-14T21:41:44.201Z,2.07
2019-05-14T21:47:49.967Z,2.17
2019-05-14T21:53:55.753Z,2.20
2019-05-14T22:00:01.931Z,2.07
2019-05-14T22:06:08.853Z,1.97
2019-05-14T22:12:14.937Z,2.33
2019-05-14T22:18:21.044Z,2.10
2019-05-14T22:24:28.719Z,2.00
2019-05-14T22:30:34.599Z,2.40
2019-05-14T22:36:40.528Z,2.17
2019-05-14T22:42:46.511Z,2.70
2019-05-14T22:48:52.318Z,2.60
2019-05-14T22:54:58.688Z,2.33
2019-05-14T23:01:14.350Z,2.57
2019-05-14T23:07:12.442Z,2.50
2019-05-14T23:13:18.686Z,2.73
2019-05-14T23:19:25.253Z,2.60
2019-05-14T23:25:31.225Z,2.73
2019-05-14T23:31:38.436Z,2.70
2019-05-14T23:37:44.501Z,3.20
2019-05-14T23:43:50.542Z,2.80
2019-05-14T23:49:58.426Z,2.93
2019-05-14T23:56:04.194Z,2.57
